sensor_id;sensor_type;location;lat;lon;timestamp;P1;durP1;ratioP1;P2;durP2;ratioP2
57249;SDS011;43102;52.014;-0.680;2022-09-01T00:00:06;7.20;;;2.80;;
57249;SDS011;43102;52.014;-0.680;2022-09-01T00:01:02;7.20;;;2.80;;
57249;SDS011;43102;52.014;-0.680;2022-09-01T00:02:07;7.20;;;2.80;;
57249;SDS011;43102;52.014;-0.680;2022-09-01T00:03:01;7.20;;;2.80;;
57249;SDS011;43102;52.014;-0.680;2022-09-01T00:04:02;7.20;;;2.80;;
57249;SDS011;43102;52.014;-0.680;2022-09-01T00:05:05;7.20;;;2.80;;
57249;SDS011;43102;52.014;-0.680;2022-09-01T00:06:00;7.20;;;2.80;;
57249;SDS011;43102;52.014;-0.680;2022-09-01T00:07:00;7.20;;;2.80;;
57249;SDS011;43102;52.014;-0.680;2022-09-01T00:08:00;7.20;;;2.80;;
57249;SDS011;43102;52.014;-0.680;2022-09-01T00:09:04;7.20;;;2.80;;
57249;SDS011;43102;52.014;-0.680;2022-09-01T00:10:03;7.20;;;2.80;;
57249;SDS011;43102;52.014;-0.680;2022-09-01T00:11:00;7.20;;;2.80;;
57249;SDS011;43102;52.014;-0.680;2022-09-01T00:12:01;7.20;;;2.80;;
57249;SDS011;43102;52.014;-0.680;2022-09-01T00:13:01;7.20;;;2.80;;
57249;SDS011;43102;52.014;-0.680;2022-09-01T00:14:01;6.10;;;2.50;;
57249;SDS011;43102;52.014;-0.680;2022-09-01T00:15:00;6.10;;;2.50;;
57249;SDS011;43102;52.014;-0.680;2022-09-01T00:16:03;6.10;;;2.50;;
57249;SDS011;43102;52.014;-0.680;2022-09-01T00:17:03;6.10;;;2.50;;
57249;SDS011;43102;52.014;-0.680;2022-09-01T00:18:01;6.10;;;2.50;;
57249;SDS011;43102;52.014;-0.680;2022-09-01T00:19:01;6.10;;;2.50;;
57249;SDS011;43102;52.014;-0.680;2022-09-01T00:20:00;6.10;;;2.50;;
57249;SDS011;43102;52.014;-0.680;2022-09-01T00:21:00;6.10;;;2.50;;
57249;SDS011;43102;52.014;-0.680;2022-09-01T00:22:01;6.10;;;2.50;;
57249;SDS011;43102;52.014;-0.680;2022-09-01T00:23:00;6.10;;;2.50;;
57249;SDS011;43102;52.014;-0.680;2022-09-01T00:24:01;6.10;;;2.50;;
57249;SDS011;43102;52.014;-0.680;2022-09-01T00:25:00;6.10;;;2.50;;
57249;SDS011;43102;52.014;-0.680;2022-09-01T00:26:00;6.10;;;2.50;;
57249;SDS011;43102;52.014;-0.680;2022-09-01T00:27:00;6.10;;;2.50;;
57249;SDS011;43102;52.014;-0.680;2022-09-01T00:28:03;6.10;;;2.50;;
57249;SDS011;43102;52.014;-0.680;2022-09-01T00:29:00;6.10;;;2.50;;
57249;SDS011;43102;52.014;-0.680;2022-09-01T00:30:00;6.10;;;2.50;;
57249;SDS011;43102;52.014;-0.680;2022-09-01T00:31:00;6.10;;;2.50;;
57249;SDS011;43102;52.014;-0.680;2022-09-01T00:32:00;6.10;;;2.50;;
57249;SDS011;43102;52.014;-0.680;2022-09-01T00:33:01;6.10;;;2.50;;
57249;SDS011;43102;52.014;-0.680;2022-09-01T00:34:00;6.10;;;2.50;;
57249;SDS011;43102;52.014;-0.680;2022-09-01T00:35:00;6.10;;;2.50;;
57249;SDS011;43102;52.014;-0.680;2022-09-01T00:36:00;6.10;;;2.50;;
57249;SDS011;43102;52.014;-0.680;2022-09-01T00:37:00;6.10;;;2.50;;
57249;SDS011;43102;52.014;-0.680;2022-09-01T00:38:01;6.10;;;2.50;;
57249;SDS011;43102;52.014;-0.680;2022-09-01T00:39:00;6.10;;;2.50;;
57249;SDS011;43102;52.014;-0.680;2022-09-01T00:40:00;6.10;;;2.50;;
57249;SDS011;43102;52.014;-0.680;2022-09-01T00:41:00;6.10;;;2.50;;
57249;SDS011;43102;52.014;-0.680;2022-09-01T00:42:01;6.10;;;2.50;;
57249;SDS011;43102;52.014;-0.680;2022-09-01T00:43:01;6.10;;;2.50;;
57249;SDS011;43102;52.014;-0.680;2022-09-01T00:44:05;5.30;;;2.60;;
57249;SDS011;43102;52.014;-0.680;2022-09-01T00:45:00;5.30;;;2.60;;
57249;SDS011;43102;52.014;-0.680;2022-09-01T00:46:00;5.30;;;2.60;;
57249;SDS011;43102;52.014;-0.680;2022-09-01T00:47:00;5.30;;;2.60;;
57249;SDS011;43102;52.014;-0.680;2022-09-01T00:48:04;5.30;;;2.60;;
57249;SDS011;43102;52.014;-0.680;2022-09-01T00:49:05;5.30;;;2.60;;
57249;SDS011;43102;52.014;-0.680;2022-09-01T00:50:03;5.30;;;2.60;;
57249;SDS011;43102;52.014;-0.680;2022-09-01T00:51:01;5.30;;;2.60;;
57249;SDS011;43102;52.014;-0.680;2022-09-01T00:52:05;5.30;;;2.60;;
57249;SDS011;43102;52.014;-0.680;2022-09-01T00:53:00;5.30;;;2.60;;
57249;SDS011;43102;52.014;-0.680;2022-09-01T00:54:00;5.30;;;2.60;;
57249;SDS011;43102;52.014;-0.680;2022-09-01T00:55:07;5.30;;;2.60;;
57249;SDS011;43102;52.014;-0.680;2022-09-01T00:56:01;5.30;;;2.60;;
57249;SDS011;43102;52.014;-0.680;2022-09-01T00:57:02;5.30;;;2.60;;
57249;SDS011;43102;52.014;-0.680;2022-09-01T00:58:03;5.30;;;2.60;;
57249;SDS011;43102;52.014;-0.680;2022-09-01T00:59:00;5.30;;;2.60;;
57249;SDS011;43102;52.014;-0.680;2022-09-01T01:00:14;5.30;;;2.60;;
57249;SDS011;43102;52.014;-0.680;2022-09-01T01:01:02;5.30;;;2.60;;
57249;SDS011;43102;52.014;-0.680;2022-09-01T01:02:00;5.30;;;2.60;;
57249;SDS011;43102;52.014;-0.680;2022-09-01T01:03:00;5.30;;;2.60;;
57249;SDS011;43102;52.014;-0.680;2022-09-01T01:04:01;5.30;;;2.60;;
57249;SDS011;43102;52.014;-0.680;2022-09-01T01:05:02;5.30;;;2.60;;
57249;SDS011;43102;52.014;-0.680;2022-09-01T01:06:04;5.30;;;2.60;;
57249;SDS011;43102;52.014;-0.680;2022-09-01T01:07:01;5.30;;;2.60;;
57249;SDS011;43102;52.014;-0.680;2022-09-01T01:08:02;5.30;;;2.60;;
57249;SDS011;43102;52.014;-0.680;2022-09-01T01:09:00;5.30;;;2.60;;
57249;SDS011;43102;52.014;-0.680;2022-09-01T01:10:01;5.30;;;2.60;;
57249;SDS011;43102;52.014;-0.680;2022-09-01T01:11:03;5.30;;;2.60;;
57249;SDS011;43102;52.014;-0.680;2022-09-01T01:12:02;5.30;;;2.60;;
57249;SDS011;43102;52.014;-0.680;2022-09-01T01:13:01;5.30;;;2.60;;
57249;SDS011;43102;52.014;-0.680;2022-09-01T01:14:11;5.20;;;2.40;;
57249;SDS011;43102;52.014;-0.680;2022-09-01T01:15:02;5.20;;;2.40;;
57249;SDS011;43102;52.014;-0.680;2022-09-01T01:16:02;5.20;;;2.40;;
57249;SDS011;43102;52.014;-0.680;2022-09-01T01:17:00;5.20;;;2.40;;
57249;SDS011;43102;52.014;-0.680;2022-09-01T01:18:00;5.20;;;2.40;;
57249;SDS011;43102;52.014;-0.680;2022-09-01T01:19:00;5.20;;;2.40;;
57249;SDS011;43102;52.014;-0.680;2022-09-01T01:20:11;5.20;;;2.40;;
57249;SDS011;43102;52.014;-0.680;2022-09-01T01:21:17;5.20;;;2.40;;
57249;SDS011;43102;52.014;-0.680;2022-09-01T01:22:13;5.20;;;2.40;;
57249;SDS011;43102;52.014;-0.680;2022-09-01T01:23:06;5.20;;;2.40;;
57249;SDS011;43102;52.014;-0.680;2022-09-01T01:24:26;5.20;;;2.40;;
57249;SDS011;43102;52.014;-0.680;2022-09-01T01:25:00;5.20;;;2.40;;
57249;SDS011;43102;52.014;-0.680;2022-09-01T01:26:00;5.20;;;2.40;;
57249;SDS011;43102;52.014;-0.680;2022-09-01T01:27:00;5.20;;;2.40;;
57249;SDS011;43102;52.014;-0.680;2022-09-01T01:29:02;5.20;;;2.40;;
57249;SDS011;43102;52.014;-0.680;2022-09-01T01:30:02;5.20;;;2.40;;
57249;SDS011;43102;52.014;-0.680;2022-09-01T01:31:12;5.20;;;2.40;;
57249;SDS011;43102;52.014;-0.680;2022-09-01T01:32:01;5.20;;;2.40;;
57249;SDS011;43102;52.014;-0.680;2022-09-01T01:33:00;5.20;;;2.40;;
57249;SDS011;43102;52.014;-0.680;2022-09-01T01:34:00;5.20;;;2.40;;
57249;SDS011;43102;52.014;-0.680;2022-09-01T01:35:04;5.20;;;2.40;;
57249;SDS011;43102;52.014;-0.680;2022-09-01T01:36:01;5.20;;;2.40;;
57249;SDS011;43102;52.014;-0.680;2022-09-01T01:37:00;5.20;;;2.40;;
57249;SDS011;43102;52.014;-0.680;2022-09-01T01:38:01;5.20;;;2.40;;
57249;SDS011;43102;52.014;-0.680;2022-09-01T01:39:04;5.20;;;2.40;;
57249;SDS011;43102;52.014;-0.680;2022-09-01T01:40:01;5.20;;;2.40;;
57249;SDS011;43102;52.014;-0.680;2022-09-01T01:41:02;5.20;;;2.40;;
57249;SDS011;43102;52.014;-0.680;2022-09-01T01:42:00;5.20;;;2.40;;
57249;SDS011;43102;52.014;-0.680;2022-09-01T01:43:01;5.20;;;2.40;;
57249;SDS011;43102;52.014;-0.680;2022-09-01T01:44:03;4.30;;;2.50;;
57249;SDS011;43102;52.014;-0.680;2022-09-01T01:45:00;4.30;;;2.50;;
57249;SDS011;43102;52.014;-0.680;2022-09-01T01:46:02;4.30;;;2.50;;
57249;SDS011;43102;52.014;-0.680;2022-09-01T01:47:09;4.30;;;2.50;;
57249;SDS011;43102;52.014;-0.680;2022-09-01T01:48:07;4.30;;;2.50;;
57249;SDS011;43102;52.014;-0.680;2022-09-01T01:49:01;4.30;;;2.50;;
57249;SDS011;43102;52.014;-0.680;2022-09-01T01:50:00;4.30;;;2.50;;
57249;SDS011;43102;52.014;-0.680;2022-09-01T01:51:01;4.30;;;2.50;;
57249;SDS011;43102;52.014;-0.680;2022-09-01T01:52:01;4.30;;;2.50;;
57249;SDS011;43102;52.014;-0.680;2022-09-01T01:53:04;4.30;;;2.50;;
57249;SDS011;43102;52.014;-0.680;2022-09-01T01:54:04;4.30;;;2.50;;
57249;SDS011;43102;52.014;-0.680;2022-09-01T01:55:11;4.30;;;2.50;;
57249;SDS011;43102;52.014;-0.680;2022-09-01T01:56:01;4.30;;;2.50;;
57249;SDS011;43102;52.014;-0.680;2022-09-01T01:57:03;4.30;;;2.50;;
57249;SDS011;43102;52.014;-0.680;2022-09-01T01:58:00;4.30;;;2.50;;
57249;SDS011;43102;52.014;-0.680;2022-09-01T01:59:00;4.30;;;2.50;;
57249;SDS011;43102;52.014;-0.680;2022-09-01T02:00:00;4.30;;;2.50;;
57249;SDS011;43102;52.014;-0.680;2022-09-01T02:01:02;4.30;;;2.50;;
57249;SDS011;43102;52.014;-0.680;2022-09-01T02:02:02;4.30;;;2.50;;
57249;SDS011;43102;52.014;-0.680;2022-09-01T02:03:00;4.30;;;2.50;;
57249;SDS011;43102;52.014;-0.680;2022-09-01T02:04:03;4.30;;;2.50;;
57249;SDS011;43102;52.014;-0.680;2022-09-01T02:05:00;4.30;;;2.50;;
57249;SDS011;43102;52.014;-0.680;2022-09-01T02:06:07;4.30;;;2.50;;
57249;SDS011;43102;52.014;-0.680;2022-09-01T02:07:00;4.30;;;2.50;;
57249;SDS011;43102;52.014;-0.680;2022-09-01T02:08:04;4.30;;;2.50;;
57249;SDS011;43102;52.014;-0.680;2022-09-01T02:09:02;4.30;;;2.50;;
57249;SDS011;43102;52.014;-0.680;2022-09-01T02:10:00;4.30;;;2.50;;
57249;SDS011;43102;52.014;-0.680;2022-09-01T02:11:02;4.30;;;2.50;;
57249;SDS011;43102;52.014;-0.680;2022-09-01T02:12:00;4.30;;;2.50;;
57249;SDS011;43102;52.014;-0.680;2022-09-01T02:13:06;4.30;;;2.50;;
57249;SDS011;43102;52.014;-0.680;2022-09-01T02:14:00;4.80;;;2.40;;
57249;SDS011;43102;52.014;-0.680;2022-09-01T02:15:01;4.80;;;2.40;;
57249;SDS011;43102;52.014;-0.680;2022-09-01T02:16:04;4.80;;;2.40;;
57249;SDS011;43102;52.014;-0.680;2022-09-01T02:17:00;4.80;;;2.40;;
57249;SDS011;43102;52.014;-0.680;2022-09-01T02:18:05;4.80;;;2.40;;
57249;SDS011;43102;52.014;-0.680;2022-09-01T02:19:02;4.80;;;2.40;;
57249;SDS011;43102;52.014;-0.680;2022-09-01T02:20:00;4.80;;;2.40;;
57249;SDS011;43102;52.014;-0.680;2022-09-01T02:21:01;4.80;;;2.40;;
57249;SDS011;43102;52.014;-0.680;2022-09-01T02:22:00;4.80;;;2.40;;
57249;SDS011;43102;52.014;-0.680;2022-09-01T02:23:08;4.80;;;2.40;;
57249;SDS011;43102;52.014;-0.680;2022-09-01T02:24:04;4.80;;;2.40;;
57249;SDS011;43102;52.014;-0.680;2022-09-01T02:25:00;4.80;;;2.40;;
57249;SDS011;43102;52.014;-0.680;2022-09-01T02:26:10;4.80;;;2.40;;
57249;SDS011;43102;52.014;-0.680;2022-09-01T02:27:01;4.80;;;2.40;;
57249;SDS011;43102;52.014;-0.680;2022-09-01T02:28:03;4.80;;;2.40;;
57249;SDS011;43102;52.014;-0.680;2022-09-01T02:29:05;4.80;;;2.40;;
57249;SDS011;43102;52.014;-0.680;2022-09-01T02:30:01;4.80;;;2.40;;
57249;SDS011;43102;52.014;-0.680;2022-09-01T02:31:01;4.80;;;2.40;;
57249;SDS011;43102;52.014;-0.680;2022-09-01T02:32:00;4.80;;;2.40;;
57249;SDS011;43102;52.014;-0.680;2022-09-01T02:33:00;4.80;;;2.40;;
57249;SDS011;43102;52.014;-0.680;2022-09-01T02:34:01;4.80;;;2.40;;
57249;SDS011;43102;52.014;-0.680;2022-09-01T02:35:00;4.80;;;2.40;;
57249;SDS011;43102;52.014;-0.680;2022-09-01T02:36:04;4.80;;;2.40;;
57249;SDS011;43102;52.014;-0.680;2022-09-01T02:37:00;4.80;;;2.40;;
57249;SDS011;43102;52.014;-0.680;2022-09-01T02:38:00;4.80;;;2.40;;
57249;SDS011;43102;52.014;-0.680;2022-09-01T02:39:00;4.80;;;2.40;;
57249;SDS011;43102;52.014;-0.680;2022-09-01T02:40:00;4.80;;;2.40;;
57249;SDS011;43102;52.014;-0.680;2022-09-01T02:41:02;4.80;;;2.40;;
57249;SDS011;43102;52.014;-0.680;2022-09-01T02:42:00;4.80;;;2.40;;
57249;SDS011;43102;52.014;-0.680;2022-09-01T02:43:00;4.80;;;2.40;;
57249;SDS011;43102;52.014;-0.680;2022-09-01T02:44:01;5.00;;;2.90;;
57249;SDS011;43102;52.014;-0.680;2022-09-01T02:45:02;5.00;;;2.90;;
57249;SDS011;43102;52.014;-0.680;2022-09-01T02:46:01;5.00;;;2.90;;
57249;SDS011;43102;52.014;-0.680;2022-09-01T02:47:04;5.00;;;2.90;;
57249;SDS011;43102;52.014;-0.680;2022-09-01T02:48:00;5.00;;;2.90;;
57249;SDS011;43102;52.014;-0.680;2022-09-01T02:49:03;5.00;;;2.90;;
57249;SDS011;43102;52.014;-0.680;2022-09-01T02:50:00;5.00;;;2.90;;
57249;SDS011;43102;52.014;-0.680;2022-09-01T02:51:02;5.00;;;2.90;;
57249;SDS011;43102;52.014;-0.680;2022-09-01T02:52:01;5.00;;;2.90;;
57249;SDS011;43102;52.014;-0.680;2022-09-01T02:53:08;5.00;;;2.90;;
57249;SDS011;43102;52.014;-0.680;2022-09-01T02:54:00;5.00;;;2.90;;
57249;SDS011;43102;52.014;-0.680;2022-09-01T02:55:02;5.00;;;2.90;;
57249;SDS011;43102;52.014;-0.680;2022-09-01T02:56:01;5.00;;;2.90;;
57249;SDS011;43102;52.014;-0.680;2022-09-01T02:57:00;5.00;;;2.90;;
57249;SDS011;43102;52.014;-0.680;2022-09-01T02:58:01;5.00;;;2.90;;
57249;SDS011;43102;52.014;-0.680;2022-09-01T02:59:02;5.00;;;2.90;;
57249;SDS011;43102;52.014;-0.680;2022-09-01T03:00:00;5.00;;;2.90;;
57249;SDS011;43102;52.014;-0.680;2022-09-01T03:01:02;5.00;;;2.90;;
57249;SDS011;43102;52.014;-0.680;2022-09-01T03:02:00;5.00;;;2.90;;
57249;SDS011;43102;52.014;-0.680;2022-09-01T03:03:01;5.00;;;2.90;;
57249;SDS011;43102;52.014;-0.680;2022-09-01T03:04:04;5.00;;;2.90;;
57249;SDS011;43102;52.014;-0.680;2022-09-01T03:05:00;5.00;;;2.90;;
57249;SDS011;43102;52.014;-0.680;2022-09-01T03:06:00;5.00;;;2.90;;
57249;SDS011;43102;52.014;-0.680;2022-09-01T03:07:05;5.00;;;2.90;;
57249;SDS011;43102;52.014;-0.680;2022-09-01T03:08:03;5.00;;;2.90;;
57249;SDS011;43102;52.014;-0.680;2022-09-01T03:09:01;5.00;;;2.90;;
57249;SDS011;43102;52.014;-0.680;2022-09-01T03:10:02;5.00;;;2.90;;
57249;SDS011;43102;52.014;-0.680;2022-09-01T03:11:01;5.00;;;2.90;;
57249;SDS011;43102;52.014;-0.680;2022-09-01T03:12:00;5.00;;;2.90;;
57249;SDS011;43102;52.014;-0.680;2022-09-01T03:13:03;5.00;;;2.90;;
57249;SDS011;43102;52.014;-0.680;2022-09-01T03:14:00;6.90;;;3.30;;
57249;SDS011;43102;52.014;-0.680;2022-09-01T03:15:00;6.90;;;3.30;;
57249;SDS011;43102;52.014;-0.680;2022-09-01T03:16:00;6.90;;;3.30;;
57249;SDS011;43102;52.014;-0.680;2022-09-01T03:17:00;6.90;;;3.30;;
57249;SDS011;43102;52.014;-0.680;2022-09-01T03:18:01;6.90;;;3.30;;
57249;SDS011;43102;52.014;-0.680;2022-09-01T03:19:02;6.90;;;3.30;;
57249;SDS011;43102;52.014;-0.680;2022-09-01T03:20:00;6.90;;;3.30;;
57249;SDS011;43102;52.014;-0.680;2022-09-01T03:21:01;6.90;;;3.30;;
57249;SDS011;43102;52.014;-0.680;2022-09-01T03:22:00;6.90;;;3.30;;
57249;SDS011;43102;52.014;-0.680;2022-09-01T03:23:06;6.90;;;3.30;;
57249;SDS011;43102;52.014;-0.680;2022-09-01T03:24:02;6.90;;;3.30;;
57249;SDS011;43102;52.014;-0.680;2022-09-01T03:25:00;6.90;;;3.30;;
57249;SDS011;43102;52.014;-0.680;2022-09-01T03:26:00;6.90;;;3.30;;
57249;SDS011;43102;52.014;-0.680;2022-09-01T03:27:00;6.90;;;3.30;;
57249;SDS011;43102;52.014;-0.680;2022-09-01T03:28:03;6.90;;;3.30;;
57249;SDS011;43102;52.014;-0.680;2022-09-01T03:29:01;6.90;;;3.30;;
57249;SDS011;43102;52.014;-0.680;2022-09-01T03:30:00;6.90;;;3.30;;
57249;SDS011;43102;52.014;-0.680;2022-09-01T03:31:00;6.90;;;3.30;;
57249;SDS011;43102;52.014;-0.680;2022-09-01T03:32:00;6.90;;;3.30;;
57249;SDS011;43102;52.014;-0.680;2022-09-01T03:33:01;6.90;;;3.30;;
57249;SDS011;43102;52.014;-0.680;2022-09-01T03:34:02;6.90;;;3.30;;
57249;SDS011;43102;52.014;-0.680;2022-09-01T03:35:00;6.90;;;3.30;;
57249;SDS011;43102;52.014;-0.680;2022-09-01T03:36:00;6.90;;;3.30;;
57249;SDS011;43102;52.014;-0.680;2022-09-01T03:37:02;6.90;;;3.30;;
57249;SDS011;43102;52.014;-0.680;2022-09-01T03:38:01;6.90;;;3.30;;
57249;SDS011;43102;52.014;-0.680;2022-09-01T03:39:01;6.90;;;3.30;;
57249;SDS011;43102;52.014;-0.680;2022-09-01T03:40:03;6.90;;;3.30;;
57249;SDS011;43102;52.014;-0.680;2022-09-01T03:41:03;6.90;;;3.30;;
57249;SDS011;43102;52.014;-0.680;2022-09-01T03:42:00;6.90;;;3.30;;
57249;SDS011;43102;52.014;-0.680;2022-09-01T03:43:03;6.90;;;3.30;;
57249;SDS011;43102;52.014;-0.680;2022-09-01T03:44:00;6.00;;;3.00;;
57249;SDS011;43102;52.014;-0.680;2022-09-01T03:45:06;6.00;;;3.00;;
57249;SDS011;43102;52.014;-0.680;2022-09-01T03:46:00;6.00;;;3.00;;
57249;SDS011;43102;52.014;-0.680;2022-09-01T03:47:02;6.00;;;3.00;;
57249;SDS011;43102;52.014;-0.680;2022-09-01T03:48:08;6.00;;;3.00;;
57249;SDS011;43102;52.014;-0.680;2022-09-01T03:49:03;6.00;;;3.00;;
57249;SDS011;43102;52.014;-0.680;2022-09-01T03:50:00;6.00;;;3.00;;
57249;SDS011;43102;52.014;-0.680;2022-09-01T03:51:01;6.00;;;3.00;;
57249;SDS011;43102;52.014;-0.680;2022-09-01T03:52:01;6.00;;;3.00;;
57249;SDS011;43102;52.014;-0.680;2022-09-01T03:53:00;6.00;;;3.00;;
57249;SDS011;43102;52.014;-0.680;2022-09-01T03:54:00;6.00;;;3.00;;
57249;SDS011;43102;52.014;-0.680;2022-09-01T03:55:00;6.00;;;3.00;;
57249;SDS011;43102;52.014;-0.680;2022-09-01T03:56:00;6.00;;;3.00;;
57249;SDS011;43102;52.014;-0.680;2022-09-01T03:57:00;6.00;;;3.00;;
57249;SDS011;43102;52.014;-0.680;2022-09-01T03:58:06;6.00;;;3.00;;
57249;SDS011;43102;52.014;-0.680;2022-09-01T03:59:00;6.00;;;3.00;;
57249;SDS011;43102;52.014;-0.680;2022-09-01T04:00:01;6.00;;;3.00;;
57249;SDS011;43102;52.014;-0.680;2022-09-01T04:01:01;6.00;;;3.00;;
57249;SDS011;43102;52.014;-0.680;2022-09-01T04:02:01;6.00;;;3.00;;
57249;SDS011;43102;52.014;-0.680;2022-09-01T04:03:02;6.00;;;3.00;;
57249;SDS011;43102;52.014;-0.680;2022-09-01T04:04:00;6.00;;;3.00;;
57249;SDS011;43102;52.014;-0.680;2022-09-01T04:05:01;6.00;;;3.00;;
57249;SDS011;43102;52.014;-0.680;2022-09-01T04:06:01;6.00;;;3.00;;
57249;SDS011;43102;52.014;-0.680;2022-09-01T04:07:00;6.00;;;3.00;;
57249;SDS011;43102;52.014;-0.680;2022-09-01T04:08:03;6.00;;;3.00;;
57249;SDS011;43102;52.014;-0.680;2022-09-01T04:09:01;6.00;;;3.00;;
57249;SDS011;43102;52.014;-0.680;2022-09-01T04:10:00;6.00;;;3.00;;
57249;SDS011;43102;52.014;-0.680;2022-09-01T04:11:03;6.00;;;3.00;;
57249;SDS011;43102;52.014;-0.680;2022-09-01T04:12:00;6.00;;;3.00;;
57249;SDS011;43102;52.014;-0.680;2022-09-01T04:13:01;6.00;;;3.00;;
57249;SDS011;43102;52.014;-0.680;2022-09-01T04:14:01;8.20;;;3.00;;
57249;SDS011;43102;52.014;-0.680;2022-09-01T04:15:00;8.20;;;3.00;;
57249;SDS011;43102;52.014;-0.680;2022-09-01T04:16:00;8.20;;;3.00;;
57249;SDS011;43102;52.014;-0.680;2022-09-01T04:17:10;8.20;;;3.00;;
57249;SDS011;43102;52.014;-0.680;2022-09-01T04:18:10;8.20;;;3.00;;
57249;SDS011;43102;52.014;-0.680;2022-09-01T04:19:00;8.20;;;3.00;;
57249;SDS011;43102;52.014;-0.680;2022-09-01T04:20:07;8.20;;;3.00;;
57249;SDS011;43102;52.014;-0.680;2022-09-01T04:21:00;8.20;;;3.00;;
57249;SDS011;43102;52.014;-0.680;2022-09-01T04:22:01;8.20;;;3.00;;
57249;SDS011;43102;52.014;-0.680;2022-09-01T04:23:03;8.20;;;3.00;;
57249;SDS011;43102;52.014;-0.680;2022-09-01T04:24:04;8.20;;;3.00;;
57249;SDS011;43102;52.014;-0.680;2022-09-01T04:25:00;8.20;;;3.00;;
57249;SDS011;43102;52.014;-0.680;2022-09-01T04:26:09;8.20;;;3.00;;
57249;SDS011;43102;52.014;-0.680;2022-09-01T04:27:02;8.20;;;3.00;;
57249;SDS011;43102;52.014;-0.680;2022-09-01T04:28:10;8.20;;;3.00;;
57249;SDS011;43102;52.014;-0.680;2022-09-01T04:29:01;8.20;;;3.00;;
57249;SDS011;43102;52.014;-0.680;2022-09-01T04:30:00;8.20;;;3.00;;
57249;SDS011;43102;52.014;-0.680;2022-09-01T04:31:05;8.20;;;3.00;;
57249;SDS011;43102;52.014;-0.680;2022-09-01T04:32:03;8.20;;;3.00;;
57249;SDS011;43102;52.014;-0.680;2022-09-01T04:33:00;8.20;;;3.00;;
57249;SDS011;43102;52.014;-0.680;2022-09-01T04:34:01;8.20;;;3.00;;
57249;SDS011;43102;52.014;-0.680;2022-09-01T04:35:01;8.20;;;3.00;;
57249;SDS011;43102;52.014;-0.680;2022-09-01T04:36:01;8.20;;;3.00;;
57249;SDS011;43102;52.014;-0.680;2022-09-01T04:37:01;8.20;;;3.00;;
57249;SDS011;43102;52.014;-0.680;2022-09-01T04:38:00;8.20;;;3.00;;
57249;SDS011;43102;52.014;-0.680;2022-09-01T04:39:01;8.20;;;3.00;;
57249;SDS011;43102;52.014;-0.680;2022-09-01T04:40:01;8.20;;;3.00;;
57249;SDS011;43102;52.014;-0.680;2022-09-01T04:41:05;8.20;;;3.00;;
57249;SDS011;43102;52.014;-0.680;2022-09-01T04:42:05;8.20;;;3.00;;
57249;SDS011;43102;52.014;-0.680;2022-09-01T04:43:00;8.20;;;3.00;;
57249;SDS011;43102;52.014;-0.680;2022-09-01T04:44:04;7.00;;;3.40;;
57249;SDS011;43102;52.014;-0.680;2022-09-01T04:45:09;7.00;;;3.40;;
57249;SDS011;43102;52.014;-0.680;2022-09-01T04:46:02;7.00;;;3.40;;
57249;SDS011;43102;52.014;-0.680;2022-09-01T04:47:00;7.00;;;3.40;;
57249;SDS011;43102;52.014;-0.680;2022-09-01T04:48:02;7.00;;;3.40;;
57249;SDS011;43102;52.014;-0.680;2022-09-01T04:49:07;7.00;;;3.40;;
57249;SDS011;43102;52.014;-0.680;2022-09-01T04:50:00;7.00;;;3.40;;
57249;SDS011;43102;52.014;-0.680;2022-09-01T04:51:00;7.00;;;3.40;;
57249;SDS011;43102;52.014;-0.680;2022-09-01T04:52:00;7.00;;;3.40;;
57249;SDS011;43102;52.014;-0.680;2022-09-01T04:53:02;7.00;;;3.40;;
57249;SDS011;43102;52.014;-0.680;2022-09-01T04:54:01;7.00;;;3.40;;
57249;SDS011;43102;52.014;-0.680;2022-09-01T04:55:02;7.00;;;3.40;;
57249;SDS011;43102;52.014;-0.680;2022-09-01T04:56:05;7.00;;;3.40;;
57249;SDS011;43102;52.014;-0.680;2022-09-01T04:57:00;7.00;;;3.40;;
57249;SDS011;43102;52.014;-0.680;2022-09-01T04:58:03;7.00;;;3.40;;
57249;SDS011;43102;52.014;-0.680;2022-09-01T04:59:02;7.00;;;3.40;;
57249;SDS011;43102;52.014;-0.680;2022-09-01T05:00:00;7.00;;;3.40;;
57249;SDS011;43102;52.014;-0.680;2022-09-01T05:01:23;7.00;;;3.40;;
57249;SDS011;43102;52.014;-0.680;2022-09-01T05:02:00;7.00;;;3.40;;
57249;SDS011;43102;52.014;-0.680;2022-09-01T05:03:03;7.00;;;3.40;;
57249;SDS011;43102;52.014;-0.680;2022-09-01T05:04:00;7.00;;;3.40;;
57249;SDS011;43102;52.014;-0.680;2022-09-01T05:05:02;7.00;;;3.40;;
57249;SDS011;43102;52.014;-0.680;2022-09-01T05:06:02;7.00;;;3.40;;
57249;SDS011;43102;52.014;-0.680;2022-09-01T05:07:02;7.00;;;3.40;;
57249;SDS011;43102;52.014;-0.680;2022-09-01T05:08:00;7.00;;;3.40;;
57249;SDS011;43102;52.014;-0.680;2022-09-01T05:09:00;7.00;;;3.40;;
57249;SDS011;43102;52.014;-0.680;2022-09-01T05:10:01;7.00;;;3.40;;
57249;SDS011;43102;52.014;-0.680;2022-09-01T05:11:06;7.00;;;3.40;;
57249;SDS011;43102;52.014;-0.680;2022-09-01T05:12:09;7.00;;;3.40;;
57249;SDS011;43102;52.014;-0.680;2022-09-01T05:13:00;7.00;;;3.40;;
57249;SDS011;43102;52.014;-0.680;2022-09-01T05:14:03;5.50;;;2.80;;
57249;SDS011;43102;52.014;-0.680;2022-09-01T05:15:05;5.50;;;2.80;;
57249;SDS011;43102;52.014;-0.680;2022-09-01T05:16:04;5.50;;;2.80;;
57249;SDS011;43102;52.014;-0.680;2022-09-01T05:17:00;5.50;;;2.80;;
57249;SDS011;43102;52.014;-0.680;2022-09-01T05:18:00;5.50;;;2.80;;
57249;SDS011;43102;52.014;-0.680;2022-09-01T05:19:00;5.50;;;2.80;;
57249;SDS011;43102;52.014;-0.680;2022-09-01T05:20:00;5.50;;;2.80;;
57249;SDS011;43102;52.014;-0.680;2022-09-01T05:21:08;5.50;;;2.80;;
57249;SDS011;43102;52.014;-0.680;2022-09-01T05:22:00;5.50;;;2.80;;
57249;SDS011;43102;52.014;-0.680;2022-09-01T05:23:01;5.50;;;2.80;;
57249;SDS011;43102;52.014;-0.680;2022-09-01T05:24:00;5.50;;;2.80;;
57249;SDS011;43102;52.014;-0.680;2022-09-01T05:25:10;5.50;;;2.80;;
57249;SDS011;43102;52.014;-0.680;2022-09-01T05:26:02;5.50;;;2.80;;
57249;SDS011;43102;52.014;-0.680;2022-09-01T05:27:00;5.50;;;2.80;;
57249;SDS011;43102;52.014;-0.680;2022-09-01T05:28:01;5.50;;;2.80;;
57249;SDS011;43102;52.014;-0.680;2022-09-01T05:29:03;5.50;;;2.80;;
57249;SDS011;43102;52.014;-0.680;2022-09-01T05:30:01;5.50;;;2.80;;
57249;SDS011;43102;52.014;-0.680;2022-09-01T05:31:00;5.50;;;2.80;;
57249;SDS011;43102;52.014;-0.680;2022-09-01T05:32:09;5.50;;;2.80;;
57249;SDS011;43102;52.014;-0.680;2022-09-01T05:33:02;5.50;;;2.80;;
57249;SDS011;43102;52.014;-0.680;2022-09-01T05:34:02;5.50;;;2.80;;
57249;SDS011;43102;52.014;-0.680;2022-09-01T05:35:01;5.50;;;2.80;;
57249;SDS011;43102;52.014;-0.680;2022-09-01T05:36:01;5.50;;;2.80;;
57249;SDS011;43102;52.014;-0.680;2022-09-01T05:37:00;5.50;;;2.80;;
57249;SDS011;43102;52.014;-0.680;2022-09-01T05:38:01;5.50;;;2.80;;
57249;SDS011;43102;52.014;-0.680;2022-09-01T05:39:01;5.50;;;2.80;;
57249;SDS011;43102;52.014;-0.680;2022-09-01T05:40:01;5.50;;;2.80;;
57249;SDS011;43102;52.014;-0.680;2022-09-01T05:41:03;5.50;;;2.80;;
57249;SDS011;43102;52.014;-0.680;2022-09-01T05:42:00;5.50;;;2.80;;
57249;SDS011;43102;52.014;-0.680;2022-09-01T05:43:01;5.50;;;2.80;;
57249;SDS011;43102;52.014;-0.680;2022-09-01T05:44:01;8.50;;;3.60;;
57249;SDS011;43102;52.014;-0.680;2022-09-01T05:45:01;8.50;;;3.60;;
57249;SDS011;43102;52.014;-0.680;2022-09-01T05:46:07;8.50;;;3.60;;
57249;SDS011;43102;52.014;-0.680;2022-09-01T05:47:04;8.50;;;3.60;;
57249;SDS011;43102;52.014;-0.680;2022-09-01T05:48:01;8.50;;;3.60;;
57249;SDS011;43102;52.014;-0.680;2022-09-01T05:49:01;8.50;;;3.60;;
57249;SDS011;43102;52.014;-0.680;2022-09-01T05:50:00;8.50;;;3.60;;
57249;SDS011;43102;52.014;-0.680;2022-09-01T05:51:00;8.50;;;3.60;;
57249;SDS011;43102;52.014;-0.680;2022-09-01T05:52:00;8.50;;;3.60;;
57249;SDS011;43102;52.014;-0.680;2022-09-01T05:53:02;8.50;;;3.60;;
57249;SDS011;43102;52.014;-0.680;2022-09-01T05:54:01;8.50;;;3.60;;
57249;SDS011;43102;52.014;-0.680;2022-09-01T05:55:01;8.50;;;3.60;;
57249;SDS011;43102;52.014;-0.680;2022-09-01T05:56:06;8.50;;;3.60;;